Time;durP1;ratioP1;P1;durP2;ratioP2;P2;SDS_P1;SDS_P2;PMS_P1;PMS_P2;Temp;Humidity;BMP_temperature;BMP_pressure;BME280_temperature;BME280_humidity;BME280_pressure;Samples;Min_cycle;Max_cycle;Signal;HPM_P1;HPM_P2
2023/01/11 00:01:41;;;;;;;20.88;17.90;;;7.10;95.90;;;;;;5016078;28;20049;-56
2023/01/11 00:04:07;;;;;;;21.63;16.43;;;7.20;95.90;;;;;;5024188;28;20057;-55
2023/01/11 00:06:36;;;;;;;19.35;17.25;;;7.20;96.00;;;;;;5032438;28;20482;-58
2023/01/11 00:09:02;;;;;;;18.92;16.90;;;7.20;96.00;;;;;;5034795;28;20022;-58
2023/01/11 00:11:28;;;;;;;21.08;16.63;;;7.20;96.00;;;;;;5029243;28;20121;-56
2023/01/11 00:13:59;;;;;;;18.88;16.08;;;7.30;96.00;;;;;;5018465;28;20033;-57
2023/01/11 00:16:25;;;;;;;17.65;15.75;;;7.40;96.00;;;;;;5018575;28;20021;-58
2023/01/11 00:18:52;;;;;;;19.60;16.40;;;7.40;96.00;;;;;;5014095;28;20096;-57
2023/01/11 00:21:21;;;;;;;18.05;16.15;;;7.40;96.00;;;;;;5032197;28;20418;-59
2023/01/11 00:23:51;;;;;;;18.90;15.43;;;7.40;96.00;;;;;;5015658;28;20030;-57
2023/01/11 00:26:17;;;;;;;17.90;16.08;;;7.40;96.00;;;;;;5015463;28;20034;-56
2023/01/11 00:28:48;;;;;;;20.05;17.95;;;7.40;96.00;;;;;;5014334;28;20026;-54
2023/01/11 00:31:15;;;;;;;17.90;15.85;;;7.50;96.00;;;;;;5025681;28;20045;-56
2023/01/11 00:33:42;;;;;;;18.45;16.23;;;7.50;96.00;;;;;;5032225;28;20029;-57
2023/01/11 00:36:09;;;;;;;17.20;15.27;;;7.50;96.00;;;;;;5034044;28;20087;-56
2023/01/11 00:38:53;;;;;;;18.02;15.05;;;7.50;96.00;;;;;;5033012;28;20025;-58
2023/01/11 00:49:41;;;;;;;16.67;14.98;;;7.60;96.00;;;;;;5021644;28;20036;-57
2023/01/11 00:52:11;;;;;;;18.30;15.13;;;7.70;96.00;;;;;;5028736;28;20041;-55
2023/01/11 00:54:39;;;;;;;18.83;15.85;;;7.70;96.00;;;;;;5022561;28;20029;-56
2023/01/11 00:57:07;;;;;;;17.20;15.38;;;7.70;96.00;;;;;;5013439;28;20064;-56
2023/01/11 00:59:40;;;;;;;18.17;15.48;;;7.70;96.00;;;;;;5013174;28;20349;-53
2023/01/11 01:02:08;;;;;;;16.75;13.73;;;7.70;96.10;;;;;;5013601;28;20111;-49
2023/01/11 01:04:36;;;;;;;18.35;15.93;;;7.70;96.00;;;;;;5021877;28;20029;-56
2023/01/11 01:07:04;;;;;;;16.52;14.82;;;7.80;96.10;;;;;;5033783;28;20036;-57
2023/01/11 01:09:32;;;;;;;17.38;14.05;;;7.80;96.10;;;;;;5032304;28;20041;-55
2023/01/11 01:12:02;;;;;;;16.65;14.45;;;7.80;96.10;;;;;;5032769;28;20035;-55
2023/01/11 01:14:29;;;;;;;15.75;14.05;;;7.90;96.10;;;;;;5032474;28;20639;-55
2023/01/11 01:17:10;;;;;;;15.30;13.77;;;7.90;96.10;;;;;;5032050;28;20469;-53
2023/01/11 01:19:38;;;;;;;18.30;13.50;;;7.90;96.10;;;;;;5025359;28;20036;-51
2023/01/11 01:22:04;;;;;;;15.18;13.57;;;7.90;96.10;;;;;;5030941;28;20037;-50
2023/01/11 01:24:32;;;;;;;16.98;14.95;;;8.00;96.20;;;;;;5019938;28;20022;-51
2023/01/11 01:26:59;;;;;;;17.50;15.07;;;8.00;96.10;;;;;;5013520;28;20018;-50
2023/01/11 01:29:26;;;;;;;17.15;15.27;;;8.00;96.20;;;;;;5012415;28;20041;-61
2023/01/11 01:31:53;;;;;;;16.45;14.07;;;8.10;96.20;;;;;;5027528;28;20025;-57
2023/01/11 01:34:19;;;;;;;17.10;15.40;;;8.10;96.10;;;;;;5015414;28;20103;-53
2023/01/11 01:36:46;;;;;;;16.10;14.40;;;8.10;96.20;;;;;;5030884;28;20485;-53
2023/01/11 01:39:13;;;;;;;17.58;15.75;;;8.10;96.20;;;;;;5032701;28;20117;-49
2023/01/11 01:41:40;;;;;;;17.08;14.88;;;8.10;96.20;;;;;;5029834;28;20451;-53
2023/01/11 01:44:45;;;;;;;15.38;13.02;;;8.20;96.20;;;;;;5028697;28;20041;-48
2023/01/11 01:47:13;;;;;;;13.73;12.32;;;8.20;96.20;;;;;;5012287;28;20026;-50
2023/01/11 01:49:43;;;;;;;14.23;12.73;;;8.30;96.20;;;;;;5028621;28;20026;-48
2023/01/11 01:52:10;;;;;;;17.00;12.13;;;8.40;96.20;;;;;;5032789;28;20036;-50
2023/01/11 01:54:41;;;;;;;15.52;11.60;;;8.40;96.20;;;;;;5032822;28;20343;-49
2023/01/11 01:57:15;;;;;;;14.98;11.60;;;8.40;96.10;;;;;;5013361;28;20112;-47
2023/01/11 01:59:42;;;;;;;13.90;12.10;;;8.40;96.10;;;;;;5031975;28;20080;-48
2023/01/11 02:02:10;;;;;;;13.13;11.82;;;8.40;96.10;;;;;;5030682;28;20053;-48
2023/01/11 02:04:56;;;;;;;13.10;11.77;;;8.50;96.10;;;;;;5030562;28;20045;-55
2023/01/11 02:07:30;;;;;;;11.50;10.25;;;8.50;96.10;;;;;;5013244;28;20026;-58
2023/01/11 02:10:10;;;;;;;12.88;11.07;;;8.50;96.10;;;;;;5012544;28;20045;-58
2023/01/11 02:12:57;;;;;;;10.32;9.23;;;8.50;96.10;;;;;;5017817;28;20021;-57
2023/01/11 02:15:23;;;;;;;11.13;10.00;;;8.60;96.20;;;;;;5032261;28;20100;-55
2023/01/11 02:17:50;;;;;;;13.55;10.27;;;8.60;96.10;;;;;;5031241;28;20132;-56
2023/01/11 02:20:51;;;;;;;11.82;10.35;;;8.60;96.10;;;;;;5031746;28;20025;-57
2023/01/11 02:23:54;;;;;;;10.10;9.10;;;8.60;96.10;;;;;;5012015;28;20080;-55
2023/01/11 02:26:39;;;;;;;10.70;9.30;;;8.70;96.10;;;;;;5012295;28;20038;-50
2023/01/11 02:29:39;;;;;;;10.77;9.00;;;8.70;96.10;;;;;;5029283;28;20104;-52
2023/01/11 02:32:11;;;;;;;11.35;9.63;;;8.70;96.10;;;;;;5017392;28;20046;-51
2023/01/11 02:34:55;;;;;;;10.10;9.10;;;8.80;96.10;;;;;;5013084;28;20407;-53
2023/01/11 02:38:00;;;;;;;10.18;9.18;;;8.80;96.10;;;;;;5023400;28;20049;-56
2023/01/11 02:40:51;;;;;;;10.68;9.43;;;8.80;96.10;;;;;;5030584;28;20795;-50
2023/01/11 02:46:40;;;;;;;9.83;8.83;;;8.90;96.20;;;;;;5025398;28;20057;-51
2023/01/11 02:49:34;;;;;;;18.20;8.52;;;8.90;96.10;;;;;;5016391;28;20049;-58
2023/01/11 02:52:11;;;;;;;8.98;8.05;;;8.90;96.10;;;;;;5034062;28;20072;-58
2023/01/11 02:54:42;;;;;;;9.07;7.90;;;8.90;96.20;;;;;;5036222;28;20037;-57
2023/01/11 02:57:12;;;;;;;8.95;8.05;;;9.00;96.10;;;;;;5035039;28;20037;-56
2023/01/11 02:59:43;;;;;;;10.07;7.80;;;9.00;96.10;;;;;;5018140;28;20037;-58
2023/01/11 03:02:11;;;;;;;8.80;7.65;;;9.00;96.10;;;;;;5032027;28;20048;-58
2023/01/11 03:04:39;;;;;;;7.93;6.85;;;9.10;96.10;;;;;;5016202;28;20026;-61
2023/01/11 03:07:29;;;;;;;7.95;7.15;;;9.20;96.10;;;;;;5031832;28;20074;-64
2023/01/11 03:10:23;;;;;;;10.75;7.15;;;9.20;96.10;;;;;;5034311;28;20055;-63
2023/01/11 03:13:27;;;;;;;8.15;5.65;;;9.20;96.10;;;;;;5015820;28;20037;-64
2023/01/11 03:16:10;;;;;;;8.40;5.85;;;9.20;96.10;;;;;;5015782;28;20045;-63
2023/01/11 03:19:03;;;;;;;7.47;5.65;;;9.20;96.10;;;;;;5015996;28;20057;-61
2023/01/11 03:22:03;;;;;;;8.43;5.78;;;9.20;96.10;;;;;;5027270;28;20550;-60
2023/01/11 03:24:43;;;;;;;;;;;9.30;96.10;;;;;;5036421;28;20079;-56
2023/01/11 03:27:17;;;;;;;6.90;4.60;;;9.30;96.10;;;;;;5035249;28;19919;-57
2023/01/11 03:30:10;;;;;;;6.75;4.90;;;9.30;96.10;;;;;;5020729;28;20279;-57
2023/01/11 03:33:14;;;;;;;6.25;4.80;;;9.30;96.00;;;;;;5035006;28;20034;-53
2023/01/11 03:36:10;;;;;;;6.22;4.80;;;9.30;96.00;;;;;;5022444;28;20061;-55
2023/01/11 03:38:46;;;;;;;7.60;4.40;;;9.40;96.10;;;;;;5034618;28;20057;-51
2023/01/11 03:41:22;;;;;;;5.70;4.55;;;9.40;96.00;;;;;;5032855;28;20033;-51
2023/01/11 03:43:55;;;;;;;7.13;4.97;;;9.40;96.00;;;;;;5025612;28;20033;-56
2023/01/11 03:46:49;;;;;;;7.70;4.75;;;9.40;96.00;;;;;;5014045;28;20030;-59
2023/01/11 03:49:35;;;;;;;4.90;4.22;;;9.40;96.00;;;;;;5028972;28;20447;-61
2023/01/11 03:52:04;;;;;;;6.50;4.90;;;9.40;96.10;;;;;;5033358;28;20021;-58
2023/01/11 03:54:32;;;;;;;5.85;4.53;;;9.50;96.00;;;;;;5029809;28;20030;-56
2023/01/11 03:57:21;;;;;;;4.80;3.45;;;9.50;96.00;;;;;;5013817;28;20410;-55
2023/01/11 03:59:49;;;;;;;6.70;3.25;;;9.50;96.00;;;;;;5015203;28;20025;-54
2023/01/11 04:02:42;;;;;;;4.28;3.35;;;9.50;96.00;;;;;;5033257;28;20390;-54
2023/01/11 04:05:10;;;;;;;4.50;3.60;;;9.50;96.00;;;;;;5024829;28;20057;-55
2023/01/11 04:07:37;;;;;;;5.38;3.97;;;9.50;96.00;;;;;;5032893;28;20075;-56
2023/01/11 04:10:04;;;;;;;4.97;3.83;;;9.50;96.00;;;;;;5034026;28;20489;-54
2023/01/11 04:12:31;;;;;;;5.55;3.63;;;9.60;96.10;;;;;;5025953;28;20133;-55
2023/01/11 04:15:04;;;;;;;4.97;3.60;;;9.60;96.00;;;;;;5030095;28;20034;-58
2023/01/11 04:17:31;;;;;;;4.45;3.45;;;9.60;96.10;;;;;;5014511;28;20053;-59
2023/01/11 04:19:58;;;;;;;4.00;3.08;;;9.60;96.10;;;;;;5015675;28;20435;-59
2023/01/11 04:22:24;;;;;;;4.50;3.10;;;9.60;96.00;;;;;;5019113;28;20099;-57
2023/01/11 04:24:51;;;;;;;4.15;3.22;;;9.70;96.00;;;;;;5013456;28;20156;-57
2023/01/11 04:27:17;;;;;;;4.35;3.20;;;9.60;96.10;;;;;;5014159;28;20364;-56
2023/01/11 04:29:49;;;;;;;3.75;2.70;;;9.70;96.10;;;;;;5013106;28;20037;-57
2023/01/11 04:32:22;;;;;;;4.40;2.35;;;9.70;96.10;;;;;;5032692;28;20026;-58
2023/01/11 04:34:49;;;;;;;4.60;2.80;;;9.70;96.10;;;;;;5031768;28;20462;-58
2023/01/11 04:37:16;;;;;;;3.42;2.35;;;9.70;96.10;;;;;;5031365;28;20045;-57
2023/01/11 04:39:45;;;;;;;3.33;2.35;;;9.70;96.10;;;;;;5031598;28;20025;-58
2023/01/11 04:42:20;;;;;;;5.10;2.60;;;9.70;96.00;;;;;;5032371;28;20022;-59
2023/01/11 04:44:51;;;;;;;3.42;1.80;;;9.70;96.10;;;;;;5021592;28;20037;-61
2023/01/11 04:47:20;;;;;;;3.50;2.03;;;9.70;96.10;;;;;;5014128;28;20080;-60
2023/01/11 04:49:47;;;;;;;3.55;2.10;;;9.70;96.10;;;;;;5015345;28;20053;-62
2023/01/11 04:52:16;;;;;;;3.60;2.30;;;9.70;96.10;;;;;;5033474;28;20846;-63
2023/01/11 04:54:47;;;;;;;3.35;1.80;;;9.80;96.20;;;;;;5028411;28;20038;-62
2023/01/11 04:57:14;;;;;;;4.13;1.80;;;9.70;96.10;;;;;;5013439;28;20041;-61
2023/01/11 04:59:45;;;;;;;3.28;1.77;;;9.80;96.20;;;;;;5016443;28;20037;-61
2023/01/11 05:02:15;;;;;;;3.33;1.25;;;9.80;96.10;;;;;;5032035;28;20132;-63
2023/01/11 05:04:45;;;;;;;1.48;0.95;;;9.80;96.20;;;;;;5017887;28;20025;-61
2023/01/11 05:07:12;;;;;;;;;;;9.70;96.10;;;;;;5031593;28;20028;-60
2023/01/11 05:09:39;;;;;;;1.70;1.00;;;9.80;96.20;;;;;;5032354;28;19913;-60
2023/01/11 05:12:06;;;;;;;1.98;1.10;;;9.80;96.20;;;;;;5028334;28;20057;-59
2023/01/11 05:14:32;;;;;;;2.38;1.30;;;9.80;96.20;;;;;;5014167;28;20026;-58
2023/01/11 05:16:58;;;;;;;3.78;1.13;;;9.80;96.20;;;;;;5032961;28;20126;-57
2023/01/11 05:19:24;;;;;;;1.90;1.10;;;9.80;96.20;;;;;;5031354;28;20034;-55
2023/01/11 05:21:54;;;;;;;1.92;1.02;;;9.70;96.20;;;;;;5018212;28;20046;-54
2023/01/11 05:24:23;;;;;;;1.88;0.90;;;9.80;96.20;;;;;;5014953;28;20049;-55
2023/01/11 05:26:51;;;;;;;2.58;1.30;;;9.70;96.20;;;;;;5031906;28;20188;-56
2023/01/11 05:29:21;;;;;;;3.70;1.50;;;9.70;96.20;;;;;;5030176;28;20030;-50
2023/01/11 05:31:47;;;;;;;3.97;1.80;;;9.70;96.20;;;;;;5013448;28;20069;-50
2023/01/11 05:34:16;;;;;;;3.20;1.60;;;9.70;96.20;;;;;;5013752;28;20029;-52
2023/01/11 05:36:42;;;;;;;2.97;1.80;;;9.60;96.20;;;;;;5024167;28;20044;-50
2023/01/11 05:39:12;;;;;;;4.35;1.98;;;9.60;96.20;;;;;;5012319;28;20298;-51
2023/01/11 05:41:39;;;;;;;4.28;1.90;;;9.60;96.20;;;;;;5012573;28;20038;-52
2023/01/11 05:46:57;;;;;;;;;;;9.50;96.20;;;;;;5014004;28;20087;-51
2023/01/11 05:49:24;;;;;;;9.27;2.72;;;9.50;96.30;;;;;;5013054;28;19909;-52
2023/01/11 05:51:51;;;;;;;2.90;1.48;;;9.50;96.20;;;;;;5032880;28;20030;-48
2023/01/11 05:54:18;;;;;;;10.45;1.98;;;9.50;96.20;;;;;;5027921;28;20036;-47
2023/01/11 05:56:45;;;;;;;5.45;1.58;;;9.50;96.20;;;;;;5013510;28;20353;-51
2023/01/11 05:59:12;;;;;;;11.32;2.47;;;9.50;96.20;;;;;;5013309;28;20029;-47
2023/01/11 06:01:39;;;;;;;5.40;2.30;;;9.40;96.20;;;;;;5021871;28;20134;-48
2023/01/11 06:04:07;;;;;;;6.47;2.38;;;9.40;96.20;;;;;;5031240;28;20037;-49
2023/01/11 06:06:33;;;;;;;5.32;1.90;;;9.40;96.20;;;;;;5018796;28;20030;-50
2023/01/11 06:09:00;;;;;;;9.95;2.25;;;9.40;96.20;;;;;;5013381;28;20034;-45
2023/01/11 06:11:26;;;;;;;11.65;3.25;;;9.40;96.20;;;;;;5020722;28;20018;-46
2023/01/11 06:13:56;;;;;;;6.97;2.08;;;9.30;96.10;;;;;;5012714;28;20720;-46
2023/01/11 06:16:22;;;;;;;11.07;3.05;;;9.30;96.10;;;;;;5029212;28;20455;-46
2023/01/11 06:18:51;;;;;;;16.98;4.75;;;9.20;96.10;;;;;;5016893;28;20026;-50
2023/01/11 06:21:19;;;;;;;13.77;3.20;;;9.20;96.00;;;;;;5026928;28;20367;-49
2023/01/11 06:23:51;;;;;;;15.05;4.32;;;9.20;96.00;;;;;;5036523;28;20029;-48
2023/01/11 06:26:21;;;;;;;11.45;2.70;;;9.10;96.00;;;;;;5034376;28;20357;-46
2023/01/11 06:28:48;;;;;;;17.08;3.55;;;9.10;96.00;;;;;;5026889;28;20320;-47
2023/01/11 06:31:15;;;;;;;15.20;3.25;;;9.00;95.90;;;;;;5028795;28;20069;-46
2023/01/11 06:33:42;;;;;;;12.55;3.55;;;9.00;95.80;;;;;;5026160;28;20455;-46
2023/01/11 06:36:10;;;;;;;14.48;3.50;;;9.00;95.80;;;;;;5035196;28;20037;-45
2023/01/11 06:38:37;;;;;;;12.23;2.97;;;8.90;95.80;;;;;;5023089;28;20029;-61
2023/01/11 06:41:07;;;;;;;13.00;3.50;;;8.90;95.70;;;;;;5035597;28;20328;-59
2023/01/11 06:43:34;;;;;;;11.90;2.83;;;8.90;95.70;;;;;;5036061;28;20109;-56
2023/01/11 06:46:01;;;;;;;15.32;3.45;;;8.90;95.70;;;;;;5033696;28;20080;-56
2023/01/11 06:48:27;;;;;;;12.55;2.35;;;8.90;95.60;;;;;;5035699;28;20035;-51
2023/01/11 06:50:55;;;;;;;16.15;3.15;;;8.90;95.70;;;;;;5033808;28;20029;-52
2023/01/11 06:53:26;;;;;;;13.60;3.70;;;8.90;95.60;;;;;;5034318;28;20061;-56
2023/01/11 06:55:53;;;;;;;17.30;3.58;;;8.90;95.60;;;;;;5026878;28;20317;-60
2023/01/11 06:58:22;;;;;;;16.25;2.90;;;9.00;95.60;;;;;;5016150;28;20088;-58
2023/01/11 07:00:48;;;;;;;11.82;2.42;;;8.90;95.60;;;;;;5030480;28;20053;-58
2023/01/11 07:03:15;;;;;;;11.70;2.88;;;9.00;95.60;;;;;;5034322;28;20149;-56
2023/01/11 07:05:43;;;;;;;15.05;3.95;;;9.00;95.50;;;;;;5025429;28;20500;-53
2023/01/11 07:08:10;;;;;;;9.95;3.28;;;8.90;95.50;;;;;;5035731;28;20090;-52
2023/01/11 07:10:37;;;;;;;12.40;2.65;;;8.90;95.40;;;;;;5034129;28;20026;-53
2023/01/11 07:13:04;;;;;;;16.85;4.07;;;8.90;95.40;;;;;;5023158;28;20045;-50
2023/01/11 07:15:35;;;;;;;16.70;2.95;;;8.90;95.40;;;;;;5015323;28;20034;-51
2023/01/11 07:18:02;;;;;;;17.98;3.97;;;8.90;95.40;;;;;;4997675;28;20053;-49
2023/01/11 07:20:29;;;;;;;9.75;2.65;;;8.90;95.30;;;;;;5021322;28;20060;-50
2023/01/11 07:23:06;;;;;;;15.85;3.13;;;8.90;95.30;;;;;;5019785;28;20048;-48
2023/01/11 07:25:33;;;;;;;22.58;2.95;;;8.90;95.30;;;;;;5015087;28;20031;-49
2023/01/11 07:28:03;;;;;;;13.00;2.83;;;8.90;95.20;;;;;;5022280;28;20091;-47
2023/01/11 07:30:33;;;;;;;;;;;8.80;95.20;;;;;;5034448;28;20033;-51
2023/01/11 07:33:00;;;;;;;9.85;2.60;;;8.80;95.20;;;;;;5027723;28;19909;-50
2023/01/11 07:35:27;;;;;;;10.82;2.75;;;8.80;95.10;;;;;;5032774;28;20044;-51
2023/01/11 07:37:57;;;;;;;10.05;2.53;;;8.80;95.10;;;;;;5034769;28;20037;-51
2023/01/11 07:40:23;;;;;;;11.15;2.83;;;8.80;95.10;;;;;;5033747;28;20397;-48
2023/01/11 07:43:14;;;;;;;13.15;3.10;;;8.80;95.10;;;;;;5031953;28;20139;-48
2023/01/11 07:45:49;;;;;;;13.77;3.03;;;8.70;95.00;;;;;;5023866;28;20586;-46
2023/01/11 07:48:23;;;;;;;11.43;2.58;;;8.80;95.00;;;;;;5029951;28;20029;-48
2023/01/11 07:50:51;;;;;;;12.98;3.40;;;8.70;95.00;;;;;;5030651;28;20025;-45
2023/01/11 07:53:17;;;;;;;13.50;3.00;;;8.80;95.00;;;;;;5027787;28;20068;-45
2023/01/11 07:55:45;;;;;;;14.35;2.70;;;8.70;94.90;;;;;;5013441;28;20052;-50
2023/01/11 07:58:13;;;;;;;15.45;3.35;;;8.70;95.00;;;;;;5021622;28;20079;-47
2023/01/11 08:00:41;;;;;;;13.18;2.50;;;8.80;95.00;;;;;;5029572;28;20091;-48
2023/01/11 08:03:11;;;;;;;10.43;3.30;;;8.80;95.00;;;;;;5032309;28;20033;-46
2023/01/11 08:05:40;;;;;;;9.23;2.72;;;8.70;94.90;;;;;;5027339;28;20116;-48
2023/01/11 08:08:06;;;;;;;13.18;2.60;;;8.80;95.00;;;;;;5032585;28;20038;-47
2023/01/11 08:10:33;;;;;;;11.82;2.83;;;8.70;95.00;;;;;;5032216;28;20032;-49
2023/01/11 08:15:43;;;;;;;14.70;4.43;;;8.80;95.00;;;;;;5026627;28;20051;-47
2023/01/11 08:18:11;;;;;;;7.75;2.50;;;8.80;95.00;;;;;;5034163;28;20785;-47
2023/01/11 08:20:37;;;;;;;10.27;2.47;;;8.80;95.00;;;;;;5029269;28;20028;-47
2023/01/11 08:23:05;;;;;;;9.50;2.38;;;8.90;95.10;;;;;;5011395;28;20087;-45
2023/01/11 08:25:35;;;;;;;12.65;4.40;;;8.90;95.00;;;;;;5013962;28;20514;-46
2023/01/11 08:28:03;;;;;;;;;;;8.90;95.10;;;;;;5014129;28;20459;-48
2023/01/11 08:30:29;;;;;;;12.43;3.00;;;8.90;95.10;;;;;;5029383;28;19906;-47
2023/01/11 08:32:56;;;;;;;13.23;3.10;;;8.90;95.10;;;;;;5019536;28;20030;-45
2023/01/11 08:35:26;;;;;;;11.40;2.85;;;8.90;95.10;;;;;;5019278;28;20057;-47
2023/01/11 08:37:53;;;;;;;9.05;3.10;;;8.90;95.10;;;;;;5031712;28;20083;-48
2023/01/11 08:40:20;;;;;;;11.48;2.95;;;8.90;95.10;;;;;;5013233;28;20440;-44
2023/01/11 08:42:49;;;;;;;12.50;3.22;;;8.90;95.10;;;;;;5022716;28;20041;-46
2023/01/11 08:45:16;;;;;;;16.65;3.45;;;8.90;95.10;;;;;;5025240;28;20034;-46
2023/01/11 08:47:47;;;;;;;12.57;2.45;;;8.90;95.10;;;;;;5031288;28;20034;-47
2023/01/11 08:50:16;;;;;;;12.63;2.90;;;9.00;95.10;;;;;;5030996;28;20079;-44
2023/01/11 08:52:43;;;;;;;12.05;3.33;;;8.90;95.10;;;;;;5032277;28;20013;-49
2023/01/11 08:55:10;;;;;;;17.33;2.88;;;8.90;95.00;;;;;;5033008;28;20125;-46
2023/01/11 08:57:39;;;;;;;12.65;2.80;;;8.90;95.00;;;;;;5033124;28;20138;-48
2023/01/11 09:00:07;;;;;;;15.60;3.17;;;8.90;94.90;;;;;;5031215;28;20377;-47
2023/01/11 09:02:34;;;;;;;14.88;3.72;;;8.90;94.90;;;;;;5029477;28;20050;-45
2023/01/11 09:05:01;;;;;;;13.38;2.40;;;9.00;94.80;;;;;;5031615;28;20501;-47
2023/01/11 09:07:30;;;;;;;12.55;3.28;;;8.90;94.70;;;;;;5022951;28;20032;-43
2023/01/11 09:09:57;;;;;;;12.77;4.32;;;8.90;94.70;;;;;;5013486;28;20024;-48
2023/01/11 09:12:25;;;;;;;10.55;2.90;;;8.90;94.60;;;;;;5030605;28;20486;-47
2023/01/11 09:14:52;;;;;;;20.08;3.65;;;8.90;94.60;;;;;;5032008;28;20083;-46
2023/01/11 09:17:19;;;;;;;11.98;3.50;;;8.90;94.60;;;;;;5027722;28;20034;-45
2023/01/11 09:19:46;;;;;;;13.48;2.95;;;8.90;94.60;;;;;;5029289;28;20037;-43
2023/01/11 09:22:12;;;;;;;14.20;2.92;;;8.90;94.60;;;;;;5033287;28;20029;-44
2023/01/11 09:24:39;;;;;;;11.88;2.65;;;8.90;94.50;;;;;;5025560;28;20348;-46
2023/01/11 09:27:06;;;;;;;14.88;3.60;;;8.90;94.50;;;;;;5029540;28;20084;-48
2023/01/11 09:29:35;;;;;;;10.60;2.95;;;8.80;94.40;;;;;;5030599;28;20056;-45
2023/01/11 09:32:01;;;;;;;13.57;3.15;;;8.80;94.40;;;;;;5030279;28;20032;-43
2023/01/11 09:34:30;;;;;;;15.68;2.75;;;8.80;94.40;;;;;;5024571;28;20112;-44
2023/01/11 09:37:02;;;;;;;16.42;2.85;;;8.80;94.30;;;;;;5033231;28;20025;-43
2023/01/11 09:39:32;;;;;;;10.98;2.60;;;8.90;94.30;;;;;;5029865;28;20026;-42
2023/01/11 09:42:14;;;;;;;13.63;2.63;;;8.80;94.20;;;;;;5031536;28;20608;-44
2023/01/11 09:44:50;;;;;;;12.48;3.47;;;8.90;94.10;;;;;;5021925;28;20066;-45
2023/01/11 09:47:35;;;;;;;15.73;2.83;;;8.80;94.00;;;;;;5013566;28;20104;-44
2023/01/11 09:50:13;;;;;;;10.20;2.90;;;8.80;93.90;;;;;;5028697;28;20026;-44
2023/01/11 09:52:43;;;;;;;14.77;3.67;;;8.80;93.90;;;;;;5032595;28;20332;-46
2023/01/11 09:55:23;;;;;;;10.50;2.80;;;8.80;93.80;;;;;;5033271;28;20025;-43
2023/01/11 09:58:21;;;;;;;14.93;2.72;;;8.80;93.80;;;;;;5020657;28;20444;-45
2023/01/11 10:01:11;;;;;;;14.38;2.95;;;8.70;93.70;;;;;;5031231;28;20073;-46
2023/01/11 10:04:21;;;;;;;14.88;5.57;;;8.70;93.50;;;;;;5029377;28;20374;-44
2023/01/11 10:07:15;;;;;;;12.00;2.47;;;8.60;93.50;;;;;;5033077;28;20044;-44
2023/01/11 10:09:55;;;;;;;21.30;3.15;;;8.60;93.40;;;;;;5028451;28;20025;-48
2023/01/11 10:12:48;;;;;;;11.27;2.83;;;8.60;93.40;;;;;;5026219;28;20102;-44
2023/01/11 10:15:34;;;;;;;10.40;2.78;;;8.60;93.40;;;;;;5031209;28;20025;-44
2023/01/11 10:18:37;;;;;;;14.50;2.40;;;8.50;93.30;;;;;;5012804;28;20151;-46
2023/01/11 10:21:22;;;;;;;10.23;2.10;;;8.50;93.20;;;;;;5047125;28;20030;-44
2023/01/11 10:24:25;;;;;;;10.75;2.45;;;8.50;93.10;;;;;;5019020;28;20285;-44
2023/01/11 10:27:00;;;;;;;17.90;3.58;;;8.50;93.10;;;;;;5012624;28;20037;-45
2023/01/11 10:29:56;;;;;;;16.15;2.70;;;8.40;92.90;;;;;;5018598;28;20080;-47
2023/01/11 10:32:53;;;;;;;13.32;3.53;;;8.40;92.80;;;;;;5012394;28;20113;-45
2023/01/11 10:35:57;;;;;;;21.95;3.10;;;8.40;92.70;;;;;;5028209;28;20064;-45
2023/01/11 10:38:52;;;;;;;13.18;3.33;;;8.30;92.60;;;;;;5014956;28;20033;-44
2023/01/11 10:41:37;;;;;;;14.45;3.40;;;8.20;92.50;;;;;;5031816;28;20041;-45
2023/01/11 10:44:43;;;;;;;15.18;3.88;;;8.20;92.40;;;;;;5023193;28;20037;-48
2023/01/11 10:47:22;;;;;;;12.82;2.78;;;8.20;92.30;;;;;;5012067;28;20114;-51
2023/01/11 10:50:03;;;;;;;13.50;2.60;;;8.10;92.20;;;;;;5025272;28;20040;-44
2023/01/11 10:52:50;;;;;;;13.98;2.78;;;8.10;92.10;;;;;;5032134;28;20351;-46
2023/01/11 10:55:45;;;;;;;12.55;2.67;;;8.10;92.00;;;;;;5028519;28;20037;-43
2023/01/11 10:58:33;;;;;;;12.75;3.28;;;8.00;91.90;;;;;;5031359;28;20758;-44
2023/01/11 11:01:45;;;;;;;18.23;3.65;;;8.00;91.90;;;;;;5031364;28;20474;-44
2023/01/11 11:04:19;;;;;;;15.27;2.75;;;8.00;91.80;;;;;;5022210;28;20025;-44
2023/01/11 11:07:06;;;;;;;12.45;2.70;;;8.00;91.80;;;;;;5033358;28;20037;-45
2023/01/11 11:09:50;;;;;;;17.40;2.97;;;8.10;91.70;;;;;;5024477;28;20033;-44
2023/01/11 11:12:38;;;;;;;10.40;2.67;;;8.20;91.60;;;;;;5015574;28;20328;-46
2023/01/11 11:15:37;;;;;;;12.77;2.60;;;8.20;91.60;;;;;;5034444;28;20457;-44
2023/01/11 11:18:04;;;;;;;14.98;3.22;;;8.30;91.60;;;;;;5015545;28;20134;-44
2023/01/11 11:20:33;;;;;;;13.25;2.58;;;8.40;91.40;;;;;;5029736;28;20382;-43
2023/01/11 11:23:00;;;;;;;9.90;2.67;;;8.40;91.40;;;;;;5033492;28;20083;-44
2023/01/11 11:25:39;;;;;;;16.13;3.45;;;8.50;91.50;;;;;;5034393;28;20067;-49
2023/01/11 11:28:23;;;;;;;13.73;3.33;;;8.60;91.50;;;;;;5035728;28;20021;-47
2023/01/11 11:30:53;;;;;;;15.38;3.08;;;8.70;91.40;;;;;;5015987;28;20030;-46
2023/01/11 11:33:24;;;;;;;9.77;2.25;;;8.80;91.40;;;;;;5016341;28;20109;-45
2023/01/11 11:36:10;;;;;;;17.05;2.83;;;8.80;91.20;;;;;;5028856;28;20037;-46
2023/01/11 11:38:43;;;;;;;12.13;3.45;;;8.90;91.10;;;;;;5015966;28;20083;-45
2023/01/11 11:41:16;;;;;;;9.93;2.35;;;8.80;91.20;;;;;;5014847;28;20443;-45
2023/01/11 11:43:46;;;;;;;11.70;3.15;;;8.90;91.20;;;;;;5014219;28;20395;-44
2023/01/11 11:46:31;;;;;;;14.27;2.83;;;8.90;91.10;;;;;;5022467;28;20036;-44
2023/01/11 11:49:15;;;;;;;9.60;3.40;;;9.00;91.00;;;;;;5033574;28;20029;-45
2023/01/11 11:51:48;;;;;;;11.70;2.63;;;9.00;90.90;;;;;;5030793;28;20022;-46
2023/01/11 11:54:40;;;;;;;9.27;2.60;;;9.10;91.00;;;;;;5026119;28;20025;-46
2023/01/11 11:57:27;;;;;;;10.77;2.17;;;9.00;90.50;;;;;;5034757;28;20332;-46
2023/01/11 12:00:21;;;;;;;10.35;2.35;;;9.00;90.40;;;;;;5034098;28;20100;-44
2023/01/11 12:03:01;;;;;;;16.75;2.40;;;9.10;90.40;;;;;;5015344;28;20142;-46
2023/01/11 12:05:28;;;;;;;13.32;2.83;;;9.10;90.40;;;;;;5028769;28;20105;-44
2023/01/11 12:07:55;;;;;;;14.23;2.70;;;9.10;90.20;;;;;;5030110;28;20399;-45
2023/01/11 12:10:29;;;;;;;11.73;2.58;;;9.10;89.80;;;;;;5025552;28;20041;-45
2023/01/11 12:13:02;;;;;;;9.73;2.78;;;9.10;89.30;;;;;;5016726;28;20057;-47
2023/01/11 12:15:33;;;;;;;12.73;2.22;;;9.10;88.90;;;;;;5015453;28;20064;-48
2023/01/11 12:18:17;;;;;;;16.10;2.72;;;9.20;88.70;;;;;;5032123;28;20075;-49
2023/01/11 12:20:46;;;;;;;10.80;2.22;;;9.20;88.40;;;;;;5029039;28;20117;-46
2023/01/11 12:23:23;;;;;;;14.32;3.00;;;9.20;88.50;;;;;;5014543;28;20026;-45
2023/01/11 12:26:09;;;;;;;9.85;3.05;;;9.20;88.30;;;;;;5013768;28;20084;-45
2023/01/11 12:29:12;;;;;;;7.63;2.17;;;9.20;88.00;;;;;;5026070;28;20026;-45
2023/01/11 12:31:42;;;;;;;12.68;2.33;;;9.20;87.90;;;;;;5014273;28;20637;-49
2023/01/11 12:34:19;;;;;;;12.13;2.30;;;9.20;88.10;;;;;;5027608;28;20029;-49
2023/01/11 12:37:04;;;;;;;12.70;2.88;;;9.20;88.20;;;;;;5024887;28;20466;-46
2023/01/11 12:39:51;;;;;;;9.55;2.05;;;9.20;88.20;;;;;;5023758;28;20033;-45
2023/01/11 12:42:51;;;;;;;10.35;2.45;;;9.20;88.40;;;;;;5032786;28;20104;-50
2023/01/11 12:45:25;;;;;;;10.95;2.17;;;9.20;88.70;;;;;;5030822;28;20037;-47
2023/01/11 12:48:22;;;;;;;9.90;3.28;;;9.30;88.60;;;;;;5032645;28;20354;-47
2023/01/11 12:50:53;;;;;;;7.38;2.38;;;9.30;88.10;;;;;;5034300;28;20076;-48
2023/01/11 12:53:43;;;;;;;9.73;2.42;;;9.40;88.00;;;;;;5020736;28;20355;-48
2023/01/11 12:56:55;;;;;;;10.68;2.38;;;9.40;87.90;;;;;;5016626;28;20025;-49
2023/01/11 12:59:58;;;;;;;12.13;2.13;;;9.40;87.70;;;;;;5018524;28;20038;-49
2023/01/11 13:02:45;;;;;;;9.45;2.45;;;9.30;87.60;;;;;;5022719;28;20080;-47
2023/01/11 13:05:29;;;;;;;12.10;2.63;;;9.30;87.60;;;;;;5032503;28;20048;-48
2023/01/11 13:08:13;;;;;;;11.13;2.67;;;9.30;87.70;;;;;;5032661;28;20025;-46
2023/01/11 13:11:12;;;;;;;8.23;2.40;;;9.30;87.40;;;;;;5013429;28;20471;-44
2023/01/11 13:13:59;;;;;;;12.95;2.17;;;9.40;87.00;;;;;;5028151;28;20030;-46
2023/01/11 13:16:35;;;;;;;10.40;2.75;;;9.40;86.70;;;;;;5032022;28;20029;-47
2023/01/11 13:19:28;;;;;;;12.30;3.35;;;9.40;86.50;;;;;;5012883;28;20044;-46
2023/01/11 13:21:56;;;;;;;8.93;2.05;;;9.40;86.30;;;;;;5015850;28;20030;-50
2023/01/11 13:24:30;;;;;;;11.88;2.15;;;9.30;86.20;;;;;;5015928;28;20141;-44
2023/01/11 13:27:05;;;;;;;10.65;2.70;;;9.10;86.20;;;;;;5021087;28;20037;-46
2023/01/11 13:29:55;;;;;;;12.63;3.80;;;9.00;85.90;;;;;;5029825;28;20022;-48
2023/01/11 13:32:26;;;;;;;8.80;2.88;;;8.90;86.30;;;;;;5028530;28;20037;-47
2023/01/11 13:34:57;;;;;;;10.75;2.65;;;8.90;86.60;;;;;;5012398;28;20045;-45
2023/01/11 13:37:52;;;;;;;11.85;3.13;;;8.90;86.70;;;;;;5012452;28;20025;-50
2023/01/11 13:40:49;;;;;;;14.75;2.50;;;8.90;86.80;;;;;;5015264;28;20035;-50
2023/01/11 13:43:26;;;;;;;17.00;2.78;;;9.10;87.00;;;;;;5012192;28;20034;-46
2023/01/11 13:46:12;;;;;;;9.52;2.72;;;9.10;86.40;;;;;;5026043;28;20042;-51
2023/01/11 13:49:05;;;;;;;13.70;2.53;;;9.20;86.10;;;;;;5027580;28;20036;-50